Time;durP1;ratioP1;P1;durP2;ratioP2;P2;SDS_P1;SDS_P2;PMS_P1;PMS_P2;Temp;Humidity;BMP_temperature;BMP_pressure;BME280_temperature;BME280_humidity;BME280_pressure;Samples;Min_cycle;Max_cycle;Signal;HPM_P1;HPM_P2
2021/04/08 00:01:43;;;;;;;3.90;1.33;;;-1.80;99.90;;;;;;4978681;28;20237;-83
2021/04/08 00:04:11;;;;;;;1.92;1.15;;;-1.90;99.90;;;;;;4979646;28;20587;-83
2021/04/08 00:06:36;;;;;;;2.60;1.15;;;-2.00;99.90;;;;;;4979473;28;20214;-83
2021/04/08 00:09:03;;;;;;;3.08;1.05;;;-2.00;99.90;;;;;;4976371;28;20690;-83
2021/04/08 00:11:29;;;;;;;2.60;1.30;;;-2.10;99.90;;;;;;4996488;28;20606;-82
2021/04/08 00:13:54;;;;;;;4.95;1.70;;;-2.10;99.90;;;;;;4996010;28;20282;-82
2021/04/08 00:16:20;;;;;;;3.17;1.40;;;-2.20;99.90;;;;;;4979566;28;20670;-83
2021/04/08 00:18:46;;;;;;;4.05;1.35;;;-2.20;99.90;;;;;;4978066;28;20254;-82
2021/04/08 00:21:11;;;;;;;3.95;1.17;;;-2.20;99.90;;;;;;4995066;28;20196;-83
2021/04/08 00:23:37;;;;;;;1.88;1.05;;;-2.20;99.90;;;;;;4977986;28;20223;-83
2021/04/08 00:26:03;;;;;;;1.70;1.40;;;-2.00;99.90;;;;;;4979048;28;20223;-84
2021/04/08 00:28:29;;;;;;;2.40;1.20;;;-1.80;99.90;;;;;;4977438;28;20223;-83
2021/04/08 00:30:55;;;;;;;3.88;1.23;;;-1.80;99.90;;;;;;4978519;28;20768;-84
2021/04/08 00:33:21;;;;;;;1.98;1.33;;;-1.80;99.90;;;;;;4978260;28;20199;-84
2021/04/08 00:35:47;;;;;;;3.88;1.33;;;-1.80;99.90;;;;;;4994602;28;20624;-85
2021/04/08 00:38:13;;;;;;;4.53;1.20;;;-1.80;99.90;;;;;;4978378;28;20192;-85
2021/04/08 00:40:41;;;;;;;6.00;1.33;;;-1.90;99.90;;;;;;4992910;28;20200;-83
2021/04/08 00:43:07;;;;;;;1.90;1.45;;;-1.90;99.90;;;;;;4976605;28;20210;-84
2021/04/08 00:45:33;;;;;;;4.57;1.30;;;-1.90;99.90;;;;;;4976331;28;20690;-83
2021/04/08 00:47:59;;;;;;;1.20;1.10;;;-1.90;99.90;;;;;;4974087;28;20199;-83
2021/04/08 00:50:25;;;;;;;1.75;1.30;;;-1.90;99.90;;;;;;4992939;28;20195;-83
2021/04/08 00:52:55;;;;;;;1.30;1.20;;;-1.80;99.90;;;;;;4975363;28;20226;-83
2021/04/08 00:55:24;;;;;;;1.98;1.20;;;-1.80;99.90;;;;;;4973982;28;20200;-82
2021/04/08 00:57:52;;;;;;;4.90;1.48;;;-1.70;99.90;;;;;;4994320;28;21055;-84
2021/04/08 01:00:18;;;;;;;2.25;1.17;;;-1.80;99.90;;;;;;4976447;28;20199;-79
2021/04/08 01:02:44;;;;;;;6.60;1.60;;;-1.80;99.90;;;;;;4990504;28;20792;-80
2021/04/08 01:05:10;;;;;;;4.40;1.70;;;-1.90;99.90;;;;;;5015886;23;20217;-73
2021/04/08 01:07:39;;;;;;;5.88;2.00;;;-1.90;99.90;;;;;;5039478;28;20202;-73
2021/04/08 01:10:07;;;;;;;2.42;1.58;;;-2.00;99.90;;;;;;5040752;28;20298;-73
2021/04/08 01:12:33;;;;;;;4.07;1.70;;;-2.00;99.90;;;;;;5020210;28;20197;-72
2021/04/08 01:15:00;;;;;;;6.22;1.42;;;-2.10;99.90;;;;;;5038939;28;20198;-72
2021/04/08 01:17:34;;;;;;;3.03;1.45;;;-2.10;99.90;;;;;;5040046;28;20190;-73
2021/04/08 01:20:18;;;;;;;6.15;1.73;;;-2.10;99.90;;;;;;5040900;28;20193;-73
2021/04/08 01:22:56;;;;;;;1.27;1.17;;;-2.00;99.90;;;;;;5038794;28;20221;-73
2021/04/08 01:25:43;;;;;;;2.63;1.40;;;-2.00;99.90;;;;;;5035589;28;20774;-73
2021/04/08 01:28:22;;;;;;;3.20;1.30;;;-1.90;99.90;;;;;;5040545;28;20201;-73
2021/04/08 01:30:50;;;;;;;3.17;1.20;;;-1.90;99.90;;;;;;5034786;28;20528;-73
2021/04/08 01:33:20;;;;;;;3.70;1.20;;;-1.90;99.90;;;;;;5036696;28;20280;-73
2021/04/08 01:35:48;;;;;;;3.08;1.40;;;-2.00;99.90;;;;;;5034119;28;20284;-73
2021/04/08 01:38:51;;;;;;;2.67;1.40;;;-2.00;99.90;;;;;;5038527;28;20228;-73
2021/04/08 01:41:19;;;;;;;2.30;1.17;;;-2.00;99.90;;;;;;5017108;28;20336;-73
2021/04/08 01:43:47;;;;;;;1.52;1.17;;;-2.00;99.90;;;;;;5040507;28;20224;-73
2021/04/08 01:46:14;;;;;;;2.55;1.30;;;-2.10;99.90;;;;;;5042812;28;20587;-73
2021/04/08 01:48:43;;;;;;;3.80;1.52;;;-2.10;99.90;;;;;;5036216;28;20259;-73
2021/04/08 01:51:11;;;;;;;2.67;1.40;;;-2.10;99.90;;;;;;5039468;28;20202;-73
2021/04/08 01:53:44;;;;;;;2.97;1.25;;;-2.00;99.90;;;;;;5037595;28;20202;-72
2021/04/08 01:56:12;;;;;;;2.22;1.40;;;-2.00;99.90;;;;;;5035328;28;20271;-72
2021/04/08 01:58:38;;;;;;;2.28;1.42;;;-1.90;99.90;;;;;;5037438;28;20205;-73
2021/04/08 02:01:04;;;;;;;3.40;1.70;;;-1.90;99.90;;;;;;5037462;28;20201;-73
2021/04/08 02:03:32;;;;;;;6.88;1.20;;;-1.80;99.90;;;;;;5039245;28;20268;-72
2021/04/08 02:05:58;;;;;;;1.30;1.10;;;-1.80;99.90;;;;;;5024694;28;20224;-73
2021/04/08 02:08:26;;;;;;;8.55;1.38;;;-1.80;99.90;;;;;;5041854;28;20198;-73
2021/04/08 02:10:53;;;;;;;3.95;1.50;;;-1.90;99.90;;;;;;5024976;28;20224;-73
2021/04/08 02:13:21;;;;;;;2.35;1.30;;;-1.90;99.90;;;;;;5037308;28;20213;-73
2021/04/08 02:15:48;;;;;;;1.80;1.20;;;-1.90;99.90;;;;;;5039414;28;20201;-73
2021/04/08 02:18:16;;;;;;;1.80;1.30;;;-1.90;99.90;;;;;;5036155;28;20346;-73
2021/04/08 02:20:45;;;;;;;2.33;1.20;;;-1.90;99.90;;;;;;5031029;28;20647;-73
2021/04/08 02:23:16;;;;;;;1.27;1.10;;;-1.90;99.90;;;;;;5036098;28;20661;-73
2021/04/08 02:25:43;;;;;;;1.55;1.15;;;-1.90;99.90;;;;;;5038817;28;20299;-73
2021/04/08 02:28:09;;;;;;;1.15;1.05;;;-1.80;99.90;;;;;;5022344;28;20293;-73
2021/04/08 02:30:57;;;;;;;6.70;1.50;;;-1.80;99.90;;;;;;5021107;28;20267;-73
2021/04/08 02:33:30;;;;;;;2.85;1.42;;;-1.80;99.90;;;;;;5034387;28;20211;-73
2021/04/08 02:35:57;;;;;;;2.15;1.20;;;-1.80;99.90;;;;;;5042336;28;20754;-70
2021/04/08 02:38:27;;;;;;;2.88;1.20;;;-1.80;99.90;;;;;;5037851;28;20627;-70
2021/04/08 02:40:54;;;;;;;3.70;1.30;;;-1.80;99.90;;;;;;5042011;28;20208;-73
2021/04/08 02:43:20;;;;;;;2.08;1.10;;;-1.70;99.90;;;;;;5043085;28;20198;-73
2021/04/08 02:45:45;;;;;;;2.42;1.10;;;-1.70;99.90;;;;;;5034275;28;20209;-73
2021/04/08 02:48:14;;;;;;;5.47;1.30;;;-1.70;99.90;;;;;;5037336;28;20241;-72
2021/04/08 02:50:48;;;;;;;1.95;1.10;;;-1.70;99.90;;;;;;5035765;28;20205;-73
2021/04/08 02:53:32;;;;;;;2.92;1.02;;;-1.70;99.90;;;;;;5036655;28;20205;-73
2021/04/08 02:56:09;;;;;;;3.35;1.23;;;-1.70;99.90;;;;;;5041477;28;20205;-73
2021/04/08 02:58:36;;;;;;;2.38;1.40;;;-1.70;99.90;;;;;;5036029;28;20284;-73
2021/04/08 03:01:12;;;;;;;4.47;1.40;;;-1.70;99.90;;;;;;5035490;28;20208;-72
2021/04/08 03:03:53;;;;;;;1.40;1.10;;;-1.70;99.90;;;;;;5038638;28;20222;-73
2021/04/08 03:06:20;;;;;;;2.88;1.17;;;-1.70;99.90;;;;;;5015617;28;20209;-73
2021/04/08 03:08:51;;;;;;;1.35;1.20;;;-1.70;99.90;;;;;;5036159;28;20216;-73
2021/04/08 03:11:24;;;;;;;1.42;1.20;;;-1.70;99.90;;;;;;5016050;28;20210;-73
2021/04/08 03:13:52;;;;;;;3.63;1.40;;;-1.80;99.90;;;;;;5032460;28;20198;-73
2021/04/08 03:16:21;;;;;;;3.33;1.50;;;-1.80;99.90;;;;;;5036513;28;20201;-73
2021/04/08 03:18:54;;;;;;;3.67;1.30;;;-1.80;99.90;;;;;;5022740;28;20659;-72
2021/04/08 03:21:26;;;;;;;4.15;1.30;;;-1.90;99.90;;;;;;5040360;28;20212;-73
2021/04/08 03:23:58;;;;;;;1.63;1.30;;;-2.10;99.90;;;;;;5036825;28;20197;-73
2021/04/08 03:26:28;;;;;;;2.58;1.25;;;-2.20;99.90;;;;;;5036840;28;20197;-73
2021/04/08 03:28:55;;;;;;;1.40;1.10;;;-2.30;99.90;;;;;;5036737;28;20221;-73
2021/04/08 03:31:21;;;;;;;2.83;1.13;;;-2.40;99.90;;;;;;5035288;28;20193;-73
2021/04/08 03:33:48;;;;;;;2.90;1.45;;;-2.50;99.90;;;;;;5022506;28;20201;-73
2021/04/08 03:36:16;;;;;;;5.03;1.25;;;-2.50;99.90;;;;;;5036373;28;20680;-73
2021/04/08 03:38:42;;;;;;;2.95;1.40;;;-2.50;99.90;;;;;;5018071;28;20216;-73
2021/04/08 03:41:09;;;;;;;3.85;1.42;;;-2.60;99.90;;;;;;5021840;28;20217;-73
2021/04/08 03:43:36;;;;;;;1.98;1.25;;;-2.60;99.90;;;;;;5032620;28;21061;-74
2021/04/08 03:46:04;;;;;;;3.17;1.30;;;-2.60;99.90;;;;;;5031302;28;20213;-73
2021/04/08 03:48:32;;;;;;;5.25;1.30;;;-2.70;99.90;;;;;;5032129;28;20812;-73
2021/04/08 03:50:58;;;;;;;1.30;1.20;;;-2.80;99.90;;;;;;5036798;28;20202;-73
2021/04/08 03:53:25;;;;;;;4.22;1.30;;;-2.80;99.90;;;;;;5031588;28;20197;-73
2021/04/08 03:55:51;;;;;;;3.22;1.40;;;-2.90;99.90;;;;;;5034008;28;20659;-73
2021/04/08 03:58:19;;;;;;;2.15;1.27;;;-2.90;99.90;;;;;;5037151;28;20209;-73
2021/04/08 04:00:45;;;;;;;2.10;1.33;;;-2.90;99.90;;;;;;5037233;28;20194;-73
2021/04/08 04:03:13;;;;;;;1.25;1.10;;;-2.90;99.90;;;;;;5036868;28;20260;-73
2021/04/08 04:05:41;;;;;;;1.80;1.35;;;-3.00;99.90;;;;;;5030010;28;20982;-73
2021/04/08 04:08:07;;;;;;;2.75;1.48;;;-3.00;99.90;;;;;;5022976;28;20198;-73
2021/04/08 04:10:37;;;;;;;1.20;1.10;;;-2.90;99.90;;;;;;5040592;28;20206;-73
2021/04/08 04:13:05;;;;;;;2.75;1.23;;;-2.90;99.90;;;;;;5041311;28;20193;-73
2021/04/08 04:15:35;;;;;;;1.20;1.10;;;-2.80;99.90;;;;;;5040308;28;20226;-71
2021/04/08 04:18:06;;;;;;;8.13;1.35;;;-2.80;99.90;;;;;;5037089;28;20248;-72
2021/04/08 04:20:32;;;;;;;3.58;1.30;;;-2.70;99.90;;;;;;5030039;28;20194;-70
2021/04/08 04:22:58;;;;;;;4.07;1.20;;;-2.60;99.90;;;;;;5034058;28;20264;-71
2021/04/08 04:25:24;;;;;;;1.73;1.30;;;-2.60;99.90;;;;;;5039513;28;20232;-70
2021/04/08 04:27:50;;;;;;;1.23;1.10;;;-2.50;99.90;;;;;;5043768;28;20197;-71
2021/04/08 04:30:16;;;;;;;3.33;1.40;;;-2.50;99.90;;;;;;5045049;28;20197;-73
2021/04/08 04:32:42;;;;;;;2.95;1.35;;;-2.50;99.90;;;;;;5042972;28;20979;-73
2021/04/08 04:35:08;;;;;;;3.72;1.25;;;-2.50;99.90;;;;;;5040946;28;20201;-73
2021/04/08 04:37:34;;;;;;;2.65;1.27;;;-2.50;99.90;;;;;;5025917;28;20201;-73
2021/04/08 04:40:00;;;;;;;4.13;1.50;;;-2.50;99.90;;;;;;5042517;28;20519;-73
2021/04/08 04:42:26;;;;;;;1.65;1.40;;;-2.50;99.90;;;;;;5027604;28;20275;-73
2021/04/08 04:44:51;;;;;;;3.72;1.10;;;-2.60;99.90;;;;;;5043799;28;20300;-74
2021/04/08 04:47:17;;;;;;;2.25;1.27;;;-2.60;99.90;;;;;;5044299;28;20197;-74
2021/04/08 04:49:43;;;;;;;4.07;1.30;;;-2.60;99.90;;;;;;5036852;28;20285;-72
2021/04/08 04:52:08;;;;;;;2.20;1.10;;;-2.60;99.90;;;;;;5041153;28;20276;-72
2021/04/08 04:54:34;;;;;;;3.10;1.40;;;-2.60;99.90;;;;;;5040625;28;20197;-72
2021/04/08 04:57:00;;;;;;;2.05;1.30;;;-2.50;99.90;;;;;;5037705;28;21191;-72
2021/04/08 04:59:25;;;;;;;4.05;1.10;;;-2.50;99.90;;;;;;5039046;28;20535;-73
2021/04/08 05:01:51;;;;;;;5.88;1.52;;;-2.50;99.90;;;;;;5043797;28;20653;-73
2021/04/08 05:04:17;;;;;;;2.92;1.40;;;-2.40;99.90;;;;;;5043181;28;20225;-72
2021/04/08 05:06:42;;;;;;;2.58;1.00;;;-2.40;99.90;;;;;;5041340;28;20220;-73
2021/04/08 05:09:08;;;;;;;2.60;1.30;;;-2.30;99.90;;;;;;5038257;28;20197;-73
2021/04/08 05:11:34;;;;;;;5.60;1.30;;;-2.20;99.90;;;;;;5045039;28;20200;-72
2021/04/08 05:14:00;;;;;;;3.42;1.30;;;-2.00;99.90;;;;;;5037286;28;21149;-72
2021/04/08 05:16:26;;;;;;;3.90;1.30;;;-1.80;99.90;;;;;;5039539;28;20204;-71
2021/04/08 05:18:51;;;;;;;4.45;1.88;;;-1.60;99.90;;;;;;5040408;28;20206;-71
2021/04/08 05:21:17;;;;;;;3.28;2.10;;;-1.40;99.90;;;;;;5016091;28;20209;-72
2021/04/08 05:23:43;;;;;;;4.72;2.13;;;-1.30;99.90;;;;;;5041437;28;20206;-72
2021/04/08 05:26:08;;;;;;;2.40;1.70;;;-1.20;99.90;;;;;;5044701;28;20213;-72
2021/04/08 05:28:34;;;;;;;7.75;1.48;;;-1.10;99.90;;;;;;5043401;28;20185;-72
2021/04/08 05:31:00;;;;;;;8.07;1.80;;;-1.00;99.90;;;;;;5039348;28;20289;-72
2021/04/08 05:33:25;;;;;;;4.35;2.03;;;-1.00;99.90;;;;;;5040201;28;20202;-71
2021/04/08 05:35:51;;;;;;;6.13;1.63;;;-0.90;99.90;;;;;;5039788;28;20248;-72
2021/04/08 05:38:17;;;;;;;7.85;1.60;;;-0.90;99.90;;;;;;5039611;28;20204;-72
2021/04/08 05:40:43;;;;;;;7.13;1.83;;;-0.80;99.90;;;;;;5043846;28;20254;-72
2021/04/08 05:43:09;;;;;;;8.88;2.00;;;-0.70;99.90;;;;;;5036934;28;20209;-72
2021/04/08 05:45:34;;;;;;;7.78;2.00;;;-0.60;99.90;;;;;;5038643;28;20291;-73
2021/04/08 05:48:00;;;;;;;6.07;1.90;;;-0.50;99.90;;;;;;5044205;28;20198;-73
2021/04/08 05:50:26;;;;;;;5.15;2.17;;;-0.40;99.90;;;;;;5039712;28;20197;-73
2021/04/08 05:52:52;;;;;;;11.10;2.15;;;-0.40;99.90;;;;;;5043231;28;20202;-72
2021/04/08 05:55:18;;;;;;;7.15;2.35;;;-0.40;99.90;;;;;;5035869;28;20194;-71
2021/04/08 05:57:44;;;;;;;7.05;2.40;;;-0.30;99.90;;;;;;5038861;28;20668;-71
2021/04/08 06:00:12;;;;;;;6.63;2.20;;;-0.20;99.90;;;;;;5042919;28;20201;-72
2021/04/08 06:02:38;;;;;;;9.30;2.15;;;-0.10;99.90;;;;;;5038188;28;21280;-73
2021/04/08 06:05:07;;;;;;;7.13;1.73;;;-0.10;99.90;;;;;;5040658;28;20234;-74
2021/04/08 06:07:33;;;;;;;5.30;1.80;;;0.00;99.90;;;;;;5037090;28;20539;-72
2021/04/08 06:09:59;;;;;;;7.45;1.60;;;0.10;99.90;;;;;;5043176;28;20220;-72
2021/04/08 06:12:25;;;;;;;7.90;1.70;;;0.10;99.90;;;;;;5039610;28;20574;-72
2021/04/08 06:14:51;;;;;;;5.00;1.98;;;0.30;99.90;;;;;;5041631;28;20210;-72
2021/04/08 06:17:17;;;;;;;11.27;1.98;;;0.30;99.90;;;;;;5043657;28;20651;-73
2021/04/08 06:19:43;;;;;;;16.15;2.63;;;0.30;99.90;;;;;;5016611;28;20730;-72
2021/04/08 06:22:10;;;;;;;9.77;2.75;;;0.20;99.90;;;;;;5034408;28;20198;-74
2021/04/08 06:24:36;;;;;;;10.65;2.30;;;0.10;99.90;;;;;;5038057;28;20328;-73
2021/04/08 06:27:01;;;;;;;5.10;2.25;;;0.00;99.90;;;;;;5038447;28;20617;-72
2021/04/08 06:29:27;;;;;;;5.75;2.00;;;0.00;99.90;;;;;;5044382;28;20193;-73
2021/04/08 06:31:53;;;;;;;5.03;1.88;;;0.00;99.90;;;;;;5042386;28;20213;-73
2021/04/08 06:34:19;;;;;;;7.22;2.10;;;0.00;99.90;;;;;;5039531;28;20876;-73
2021/04/08 06:36:44;;;;;;;5.22;1.50;;;0.00;99.90;;;;;;5043635;28;20688;-73
2021/04/08 06:39:13;;;;;;;6.18;1.52;;;0.10;99.90;;;;;;5042639;28;20197;-73
2021/04/08 06:41:39;;;;;;;3.60;1.70;;;0.30;99.90;;;;;;5035953;28;20198;-73
2021/04/08 06:44:10;;;;;;;7.10;1.70;;;0.60;99.90;;;;;;5035032;28;20560;-73
2021/04/08 06:46:40;;;;;;;2.22;1.60;;;0.90;99.90;;;;;;5025628;28;20736;-73
2021/04/08 06:49:24;;;;;;;3.60;1.52;;;1.00;99.90;;;;;;5037615;28;20272;-73
2021/04/08 06:51:55;;;;;;;3.53;1.60;;;1.10;99.90;;;;;;5044358;28;20201;-72
2021/04/08 06:54:21;;;;;;;7.32;2.60;;;1.30;99.90;;;;;;5037900;28;20841;-73
2021/04/08 06:56:48;;;;;;;8.27;1.90;;;1.40;99.90;;;;;;5039694;28;20224;-74
2021/04/08 06:59:15;;;;;;;3.58;1.70;;;1.50;99.90;;;;;;5044784;28;20243;-73
2021/04/08 07:01:42;;;;;;;4.32;1.85;;;1.80;99.90;;;;;;5038503;28;21046;-73
2021/04/08 07:04:10;;;;;;;3.42;1.30;;;1.90;99.90;;;;;;5040157;28;20291;-74
2021/04/08 07:06:36;;;;;;;3.30;1.30;;;2.10;99.90;;;;;;5038432;28;20300;-72
2021/04/08 07:09:04;;;;;;;4.80;1.45;;;2.10;99.90;;;;;;5038290;28;20260;-73
2021/04/08 07:11:30;;;;;;;3.20;1.45;;;2.10;99.90;;;;;;5021251;28;20659;-74
2021/04/08 07:13:56;;;;;;;3.00;1.50;;;2.10;99.90;;;;;;5040200;28;20201;-74
2021/04/08 07:16:22;;;;;;;2.47;1.27;;;2.30;99.90;;;;;;5040466;28;20270;-73
2021/04/08 07:18:49;;;;;;;4.20;1.30;;;2.30;99.90;;;;;;5018285;28;20202;-73
2021/04/08 07:21:15;;;;;;;5.20;1.50;;;2.50;99.90;;;;;;5041458;28;20193;-73
2021/04/08 07:24:15;;;;;;;4.38;1.50;;;2.80;99.90;;;;;;5015538;28;20329;-73
2021/04/08 07:27:05;;;;;;;2.30;1.30;;;3.20;99.90;;;;;;5042049;28;20209;-73
2021/04/08 07:29:39;;;;;;;2.95;1.00;;;3.60;99.90;;;;;;5040025;28;20216;-74
2021/04/08 07:32:10;;;;;;;1.83;1.02;;;4.00;97.40;;;;;;5040128;28;20225;-73
2021/04/08 07:34:39;;;;;;;3.33;1.10;;;4.20;95.30;;;;;;5037368;28;20205;-72
2021/04/08 07:37:06;;;;;;;2.58;0.90;;;4.10;94.70;;;;;;5039858;28;20626;-73
2021/04/08 07:39:43;;;;;;;5.10;1.48;;;3.90;93.10;;;;;;5042371;28;20743;-73
2021/04/08 07:42:11;;;;;;;2.58;1.05;;;3.80;94.90;;;;;;5038385;28;20584;-73
2021/04/08 07:44:57;;;;;;;1.52;1.05;;;3.80;95.60;;;;;;5039340;28;20262;-72
2021/04/08 07:47:26;;;;;;;2.33;1.15;;;4.00;95.30;;;;;;5035886;28;20204;-73
2021/04/08 07:49:57;;;;;;;5.32;1.00;;;4.30;95.00;;;;;;5039432;28;20198;-72
2021/04/08 07:52:22;;;;;;;1.40;1.13;;;4.70;94.30;;;;;;5039011;28;20645;-72
2021/04/08 07:55:01;;;;;;;1.92;1.10;;;4.90;94.60;;;;;;5038763;28;20204;-72
2021/04/08 07:57:29;;;;;;;2.20;1.10;;;5.10;93.40;;;;;;5031919;28;20194;-73
2021/04/08 07:59:55;;;;;;;3.00;1.10;;;5.20;92.00;;;;;;5038539;28;20197;-73
2021/04/08 08:02:27;;;;;;;1.75;1.10;;;5.40;92.30;;;;;;5038354;28;20209;-73
2021/04/08 08:05:18;;;;;;;1.05;0.90;;;5.20;91.90;;;;;;5040925;28;20225;-74
2021/04/08 08:07:44;;;;;;;1.75;1.08;;;5.30;92.30;;;;;;5041849;28;20190;-73
2021/04/08 08:10:16;;;;;;;3.30;1.10;;;5.50;92.10;;;;;;5039680;28;20296;-71
2021/04/08 08:12:41;;;;;;;2.47;1.10;;;5.80;91.10;;;;;;5040127;28;20197;-71
2021/04/08 08:15:24;;;;;;;3.72;1.13;;;6.00;88.90;;;;;;5041853;28;20204;-72
2021/04/08 08:17:50;;;;;;;3.80;1.10;;;6.00;91.60;;;;;;5039387;28;20229;-74
2021/04/08 08:20:17;;;;;;;5.97;1.17;;;6.30;89.10;;;;;;5042487;28;20217;-73
2021/04/08 08:22:44;;;;;;;2.40;1.10;;;6.20;85.80;;;;;;5044024;28;20189;-73
2021/04/08 08:25:12;;;;;;;1.00;0.90;;;6.30;87.70;;;;;;5042474;28;20201;-73
2021/04/08 08:27:41;;;;;;;1.83;1.00;;;6.00;85.30;;;;;;5038601;28;20197;-73
2021/04/08 08:30:15;;;;;;;5.70;1.02;;;5.60;84.60;;;;;;5039008;28;20197;-74
2021/04/08 08:33:07;;;;;;;1.20;1.10;;;5.30;86.80;;;;;;5033657;28;20205;-73
2021/04/08 08:35:33;;;;;;;1.10;1.00;;;5.20;86.10;;;;;;5039750;28;20262;-72
2021/04/08 08:38:28;;;;;;;1.63;1.00;;;5.40;89.00;;;;;;5038090;28;20193;-72
2021/04/08 08:40:56;;;;;;;2.58;1.15;;;5.60;86.30;;;;;;5011722;28;20570;-72
2021/04/08 08:43:22;;;;;;;2.15;0.95;;;6.00;85.30;;;;;;5041832;28;20289;-72
2021/04/08 08:45:48;;;;;;;1.55;1.00;;;6.30;81.70;;;;;;5024510;28;20217;-70
2021/04/08 08:48:19;;;;;;;2.55;1.10;;;6.70;80.60;;;;;;5042936;28;20204;-72
2021/04/08 08:50:48;;;;;;;2.33;1.00;;;7.30;80.20;;;;;;5038844;28;20910;-72
2021/04/08 08:53:15;;;;;;;2.05;1.05;;;7.50;78.40;;;;;;5030826;28;20211;-73
2021/04/08 08:55:42;;;;;;;1.55;1.15;;;7.30;78.30;;;;;;5037214;28;20198;-73
2021/04/08 08:58:07;;;;;;;1.52;0.93;;;7.30;78.20;;;;;;5039416;28;20690;-73
2021/04/08 09:00:33;;;;;;;4.03;0.95;;;7.60;79.50;;;;;;5035181;28;20197;-73
2021/04/08 09:03:01;;;;;;;1.25;0.85;;;8.10;75.50;;;;;;5039968;28;20225;-72
2021/04/08 09:05:29;;;;;;;2.00;0.90;;;8.10;74.20;;;;;;5023025;28;20627;-72
2021/04/08 09:07:59;;;;;;;1.05;0.90;;;8.00;72.70;;;;;;5035035;28;20260;-72
2021/04/08 09:10:30;;;;;;;1.92;0.98;;;8.20;73.50;;;;;;5037068;28;20335;-73
2021/04/08 09:12:56;;;;;;;3.03;0.95;;;8.30;73.00;;;;;;5034035;28;21833;-72
2021/04/08 09:15:23;;;;;;;4.47;1.10;;;8.40;74.10;;;;;;5034781;28;22209;-73
2021/04/08 09:17:59;;;;;;;1.58;0.80;;;8.70;74.60;;;;;;5030507;28;21005;-72
2021/04/08 09:20:26;;;;;;;1.02;0.88;;;9.20;71.90;;;;;;5037952;28;20197;-72
2021/04/08 09:23:08;;;;;;;2.10;1.00;;;8.90;67.90;;;;;;5037745;28;20201;-72
2021/04/08 09:25:55;;;;;;;0.90;0.80;;;8.80;68.80;;;;;;5038546;28;20208;-72
2021/04/08 09:28:22;;;;;;;1.30;0.90;;;9.10;66.40;;;;;;5036474;28;20201;-73
2021/04/08 09:33:39;;;;;;;1.05;0.80;;;9.90;65.80;;;;;;5034645;28;20545;-73
2021/04/08 09:36:27;;;;;;;0.98;0.88;;;9.90;66.20;;;;;;5039274;28;20197;-71
2021/04/08 09:39:14;;;;;;;3.80;1.00;;;10.20;62.80;;;;;;5035909;28;20198;-72
2021/04/08 09:41:50;;;;;;;2.38;1.00;;;10.50;63.40;;;;;;5035725;28;20264;-72
2021/04/08 09:44:18;;;;;;;1.25;0.90;;;10.90;63.10;;;;;;5036461;28;20204;-73
2021/04/08 09:46:53;;;;;;;2.15;0.88;;;10.80;61.60;;;;;;5033222;28;20218;-73
2021/04/08 09:49:41;;;;;;;3.17;1.00;;;10.10;62.30;;;;;;5030960;28;20559;-73
2021/04/08 09:52:11;;;;;;;2.05;1.00;;;10.20;62.80;;;;;;5033937;28;20245;-74
2021/04/08 09:54:56;;;;;;;4.10;1.27;;;10.60;64.30;;;;;;5036727;28;20198;-73
2021/04/08 09:57:39;;;;;;;4.40;1.00;;;10.60;62.30;;;;;;5036376;28;20298;-73
2021/04/08 10:00:09;;;;;;;3.97;1.13;;;10.60;61.50;;;;;;5039026;28;20204;-73
2021/04/08 10:02:35;;;;;;;2.60;1.20;;;11.10;62.80;;;;;;5032954;28;20225;-73
2021/04/08 10:05:12;;;;;;;5.10;1.20;;;11.70;62.10;;;;;;5021750;28;20236;-73
2021/04/08 10:07:58;;;;;;;5.85;1.00;;;11.60;60.00;;;;;;5033030;28;20562;-73
2021/04/08 10:10:35;;;;;;;4.15;0.90;;;11.00;60.50;;;;;;5037994;28;20197;-73
2021/04/08 10:13:02;;;;;;;5.55;0.98;;;10.30;61.50;;;;;;5036129;28;20233;-73
2021/04/08 10:15:34;;;;;;;3.28;1.00;;;9.70;62.00;;;;;;5033569;28;20205;-73
2021/04/08 10:18:00;;;;;;;3.38;1.27;;;9.50;65.20;;;;;;5033104;28;20212;-73
2021/04/08 10:20:39;;;;;;;1.50;0.93;;;9.40;64.90;;;;;;5024274;28;20625;-74
2021/04/08 10:23:06;;;;;;;2.55;0.98;;;9.70;61.60;;;;;;5039065;28;20265;-74
2021/04/08 10:25:33;;;;;;;2.42;1.20;;;9.90;60.80;;;;;;5038119;28;20236;-74
2021/04/08 10:27:59;;;;;;;2.13;1.13;;;10.00;61.70;;;;;;5037984;28;20569;-74
2021/04/08 10:30:25;;;;;;;3.45;1.20;;;10.30;61.80;;;;;;5041410;28;20197;-73
2021/04/08 10:32:53;;;;;;;8.40;1.10;;;10.80;60.90;;;;;;5023466;28;20198;-74
2021/04/08 10:35:24;;;;;;;3.40;1.10;;;10.90;59.00;;;;;;5037484;28;20202;-73
2021/04/08 10:38:16;;;;;;;1.58;0.98;;;10.60;57.70;;;;;;5037203;28;20288;-72
2021/04/08 10:40:51;;;;;;;6.07;1.00;;;11.20;61.10;;;;;;5028228;28;20318;-74
2021/04/08 10:43:18;;;;;;;1.88;1.00;;;10.50;56.80;;;;;;5033547;28;20292;-73
2021/04/08 10:45:51;;;;;;;2.85;1.27;;;10.50;58.40;;;;;;5015158;28;20217;-72
2021/04/08 10:48:17;;;;;;;1.10;0.82;;;11.10;60.00;;;;;;5035882;28;20206;-68
2021/04/08 10:50:43;;;;;;;3.95;1.42;;;12.00;68.60;;;;;;5026519;28;20222;-69
2021/04/08 10:53:08;;;;;;;2.95;1.25;;;12.90;70.50;;;;;;5034148;28;20189;-69
2021/04/08 10:55:34;;;;;;;3.90;1.60;;;14.10;54.90;;;;;;5017029;28;20197;-70
2021/04/08 10:58:00;;;;;;;2.28;0.73;;;14.50;59.20;;;;;;5028903;28;20210;-70
2021/04/08 11:00:25;;;;;;;2.95;1.10;;;15.00;55.90;;;;;;5028731;28;20945;-70
2021/04/08 11:02:51;;;;;;;0.80;0.80;;;15.70;53.90;;;;;;5036546;28;20244;-72
2021/04/08 11:05:24;;;;;;;3.15;0.90;;;15.90;51.80;;;;;;5033588;28;20256;-69
2021/04/08 11:07:54;;;;;;;2.22;0.90;;;14.90;48.70;;;;;;5035396;28;20202;-70
2021/04/08 11:10:27;;;;;;;1.48;0.80;;;13.50;54.10;;;;;;5037305;28;20198;-73
2021/04/08 11:12:54;;;;;;;2.53;0.85;;;12.90;54.00;;;;;;5033195;28;20312;-73
2021/04/08 11:15:26;;;;;;;1.98;1.10;;;13.20;55.10;;;;;;5039119;28;20356;-72
2021/04/08 11:17:56;;;;;;;3.60;0.85;;;13.60;54.80;;;;;;5034005;28;20255;-73
2021/04/08 11:20:34;;;;;;;3.47;0.75;;;13.20;52.90;;;;;;5032803;28;20201;-74
2021/04/08 11:23:00;;;;;;;1.20;0.82;;;12.60;54.10;;;;;;5020578;28;20209;-72
2021/04/08 11:25:28;;;;;;;2.13;1.00;;;11.70;55.30;;;;;;5032615;28;20758;-73
2021/04/08 11:27:56;;;;;;;1.20;0.70;;;12.20;58.80;;;;;;5038081;28;20702;-72
2021/04/08 11:30:45;;;;;;;2.45;1.10;;;12.10;55.10;;;;;;5037555;28;20193;-71
2021/04/08 11:33:19;;;;;;;1.75;1.10;;;12.50;56.60;;;;;;5034219;28;20224;-72
2021/04/08 11:35:46;;;;;;;2.30;0.93;;;12.70;54.90;;;;;;5036813;28;20208;-72
2021/04/08 11:38:17;;;;;;;1.70;0.90;;;12.80;57.40;;;;;;5034456;28;20202;-73
2021/04/08 11:40:49;;;;;;;1.77;0.95;;;12.60;56.90;;;;;;5038795;28;20205;-73
2021/04/08 11:43:26;;;;;;;1.45;0.88;;;11.60;57.70;;;;;;5025261;28;20205;-73
2021/04/08 11:45:57;;;;;;;3.53;1.00;;;11.60;57.70;;;;;;5034448;28;20212;-73
2021/04/08 11:48:23;;;;;;;1.33;1.00;;;12.00;59.50;;;;;;5031851;28;20204;-73
2021/04/08 11:50:50;;;;;;;4.95;1.00;;;12.90;58.50;;;;;;5036178;28;20193;-72
2021/04/08 11:53:32;;;;;;;3.35;1.13;;;12.70;57.00;;;;;;5039242;28;20237;-72
2021/04/08 11:55:57;;;;;;;2.05;1.00;;;13.20;55.60;;;;;;5035843;28;20295;-73
2021/04/08 11:58:24;;;;;;;1.83;1.05;;;12.90;55.90;;;;;;5037144;28;20254;-72
2021/04/08 12:00:50;;;;;;;4.68;1.10;;;13.20;57.50;;;;;;5043395;28;20201;-72
2021/04/08 12:03:19;;;;;;;3.03;0.90;;;13.20;56.30;;;;;;5036203;28;20212;-71
2021/04/08 12:05:44;;;;;;;3.10;1.02;;;12.60;55.90;;;;;;5024432;28;20263;-71
2021/04/08 12:08:11;;;;;;;2.35;1.00;;;13.00;59.40;;;;;;5043115;28;20197;-71
2021/04/08 12:10:38;;;;;;;3.28;1.08;;;13.70;56.40;;;;;;5022839;28;20225;-71
2021/04/08 12:13:06;;;;;;;1.83;1.00;;;13.80;55.30;;;;;;5037004;28;20729;-71
2021/04/08 12:15:46;;;;;;;4.65;1.00;;;12.90;54.50;;;;;;5039303;28;20201;-71
2021/04/08 12:18:17;;;;;;;2.15;0.88;;;12.60;56.80;;;;;;5035115;28;20591;-72
2021/04/08 12:20:44;;;;;;;1.42;1.13;;;12.70;57.80;;;;;;5044546;28;20201;-73
2021/04/08 12:23:11;;;;;;;1.67;0.90;;;13.00;57.50;;;;;;5040321;28;20207;-72
2021/04/08 12:25:53;;;;;;;2.38;0.90;;;13.00;54.80;;;;;;5036025;28;20733;-73
2021/04/08 12:28:21;;;;;;;2.63;1.00;;;12.60;55.30;;;;;;5043405;28;20818;-71
2021/04/08 12:30:56;;;;;;;1.58;1.00;;;12.70;56.10;;;;;;5017960;28;20206;-73
2021/04/08 12:33:27;;;;;;;7.10;0.90;;;13.20;55.30;;;;;;5022622;28;20836;-72
2021/04/08 12:35:53;;;;;;;1.92;0.90;;;13.30;56.00;;;;;;5034947;28;20213;-72
2021/04/08 12:38:19;;;;;;;1.75;0.80;;;13.20;58.40;;;;;;5035530;28;20281;-72
2021/04/08 12:40:45;;;;;;;2.53;0.90;;;13.60;56.30;;;;;;5023839;28;20206;-71
2021/04/08 12:43:11;;;;;;;2.67;1.05;;;13.80;57.60;;;;;;5042026;28;20201;-72
2021/04/08 12:45:37;;;;;;;1.90;1.10;;;13.50;56.80;;;;;;5038989;28;20250;-72
2021/04/08 12:48:04;;;;;;;4.45;0.90;;;13.20;55.10;;;;;;5041024;28;20216;-72
2021/04/08 12:50:29;;;;;;;2.50;1.05;;;13.20;56.20;;;;;;5022617;28;20193;-72
2021/04/08 12:52:55;;;;;;;2.45;1.20;;;13.30;56.20;;;;;;5043032;28;20250;-71
2021/04/08 12:55:25;;;;;;;1.88;1.10;;;13.30;58.60;;;;;;5042425;28;20229;-70
2021/04/08 12:57:53;;;;;;;3.10;1.20;;;12.90;57.90;;;;;;5041970;28;20231;-71
2021/04/08 13:00:19;;;;;;;4.28;1.20;;;12.60;57.60;;;;;;5039753;28;20610;-72
2021/04/08 13:02:45;;;;;;;0.98;0.80;;;11.80;59.70;;;;;;5038604;28;20703;-72
2021/04/08 13:05:11;;;;;;;2.97;1.10;;;11.30;59.70;;;;;;5040266;28;20816;-72